Time;durP1;ratioP1;P1;durP2;ratioP2;P2;SDS_P1;SDS_P2;PMS_P1;PMS_P2;Temp;Humidity;BMP_temperature;BMP_pressure;BME280_temperature;BME280_humidity;BME280_pressure;Samples;Min_cycle;Max_cycle;Signal;HPM_P1;HPM_P2
2022/05/16 00:02:26;;;;;;;5.95;1.60;;;18.00;81.30;;;;;;6307434;22;20023;-65
2022/05/16 00:04:53;;;;;;;5.50;1.70;;;18.00;80.80;;;;;;6280133;22;20053;-65
2022/05/16 00:07:21;;;;;;;3.25;1.73;;;18.10;80.50;;;;;;6279656;22;20079;-66
2022/05/16 00:09:49;;;;;;;1.60;1.48;;;18.10;80.70;;;;;;6254538;22;20010;-66
2022/05/16 00:12:16;;;;;;;2.88;1.38;;;18.20;80.30;;;;;;6307801;22;20007;-66
2022/05/16 00:14:44;;;;;;;1.98;1.42;;;18.20;80.20;;;;;;6306784;22;20082;-66
2022/05/16 00:17:12;;;;;;;3.15;1.85;;;18.30;80.00;;;;;;6254459;22;20007;-66
2022/05/16 00:19:40;;;;;;;5.50;1.40;;;18.30;80.20;;;;;;6307011;22;20006;-66
2022/05/16 00:22:07;;;;;;;2.10;1.52;;;18.30;80.20;;;;;;6306203;22;20004;-67
2022/05/16 00:24:35;;;;;;;5.18;1.75;;;18.30;80.00;;;;;;6279520;22;20441;-66
2022/05/16 00:27:02;;;;;;;4.75;2.00;;;18.30;79.50;;;;;;6307039;22;20056;-66
2022/05/16 00:29:29;;;;;;;13.90;2.22;;;18.30;79.50;;;;;;6306563;22;20011;-66
2022/05/16 00:31:56;;;;;;;14.20;1.70;;;18.30;79.40;;;;;;6306914;22;20015;-66
2022/05/16 00:34:24;;;;;;;3.60;1.52;;;18.40;79.60;;;;;;6279375;22;20004;-66
2022/05/16 00:36:51;;;;;;;5.07;1.35;;;18.40;78.60;;;;;;6306460;22;20430;-66
2022/05/16 00:39:20;;;;;;;7.85;1.67;;;18.50;78.60;;;;;;6307229;22;20025;-66
2022/05/16 00:41:47;;;;;;;2.97;1.50;;;18.50;79.20;;;;;;6306847;22;20086;-66
2022/05/16 00:44:14;;;;;;;3.05;1.25;;;18.50;78.80;;;;;;6306453;22;20060;-66
2022/05/16 00:46:42;;;;;;;2.33;1.13;;;18.50;77.80;;;;;;6279821;22;20006;-67
2022/05/16 00:49:21;;;;;;;3.78;1.23;;;18.60;76.60;;;;;;6306462;22;20019;-65
2022/05/16 00:51:51;;;;;;;3.03;1.20;;;18.70;76.10;;;;;;6280405;22;20034;-66
2022/05/16 00:54:22;;;;;;;6.53;1.23;;;18.70;75.50;;;;;;6279374;22;20572;-66
2022/05/16 00:56:51;;;;;;;0.98;0.90;;;18.70;74.70;;;;;;6306707;22;20074;-66
2022/05/16 00:59:19;;;;;;;2.15;1.00;;;18.80;73.30;;;;;;6253799;22;19999;-66
2022/05/16 01:04:49;;;;;;;22.20;1.90;;;18.80;72.10;;;;;;6261909;22;20023;-66
2022/05/16 01:07:32;;;;;;;1.10;0.88;;;18.80;73.00;;;;;;6306331;22;20013;-67
2022/05/16 01:09:59;;;;;;;1.00;0.68;;;18.80;70.60;;;;;;6231271;22;20011;-66
2022/05/16 01:12:34;;;;;;;1.38;0.90;;;18.90;70.30;;;;;;6306693;22;20060;-66
2022/05/16 01:15:02;;;;;;;1.13;0.80;;;19.00;70.30;;;;;;6280074;22;20018;-66
2022/05/16 01:17:29;;;;;;;2.15;0.80;;;19.00;69.50;;;;;;6279616;22;20003;-66
2022/05/16 01:19:56;;;;;;;0.77;0.77;;;19.00;68.80;;;;;;6278901;22;20449;-66
2022/05/16 01:22:32;;;;;;;1.67;0.70;;;19.00;68.60;;;;;;6279652;22;20423;-66
2022/05/16 01:25:28;;;;;;;0.90;0.70;;;19.00;67.90;;;;;;6279503;22;20440;-67
2022/05/16 01:27:58;;;;;;;1.27;0.75;;;19.00;67.30;;;;;;6274316;22;20420;-67
2022/05/16 01:30:29;;;;;;;1.40;0.90;;;19.10;67.70;;;;;;6279189;22;20003;-66
2022/05/16 01:32:56;;;;;;;1.70;1.20;;;19.00;67.20;;;;;;6278451;22;20325;-67
2022/05/16 01:35:26;;;;;;;1.02;0.75;;;19.10;67.30;;;;;;6279231;22;20479;-67
2022/05/16 01:40:39;;;;;;;1.00;0.77;;;19.20;67.50;;;;;;6306231;22;20018;-67
2022/05/16 01:43:07;;;;;;;1.20;1.10;;;19.20;67.30;;;;;;6279114;22;20057;-67
2022/05/16 01:45:34;;;;;;;1.05;0.70;;;19.30;67.30;;;;;;6305751;22;20007;-66
2022/05/16 01:48:01;;;;;;;12.90;2.83;;;19.30;67.30;;;;;;6278595;22;20357;-66
2022/05/16 01:50:28;;;;;;;3.95;1.23;;;19.30;67.90;;;;;;6306026;22;20306;-66
2022/05/16 01:52:55;;;;;;;2.70;0.80;;;19.30;67.20;;;;;;6306114;22;19999;-67
2022/05/16 01:55:23;;;;;;;1.35;0.82;;;19.30;67.00;;;;;;6277908;22;20007;-66
2022/05/16 01:57:50;;;;;;;1.23;0.85;;;19.30;66.70;;;;;;6278518;22;20004;-66
2022/05/16 02:00:17;;;;;;;1.60;0.60;;;19.30;65.40;;;;;;6305668;22;20352;-66
2022/05/16 02:02:45;;;;;;;2.47;0.82;;;19.30;65.10;;;;;;6306483;22;20010;-66
2022/05/16 02:05:15;;;;;;;0.85;0.80;;;19.30;65.40;;;;;;6278985;22;20038;-67
2022/05/16 02:07:42;;;;;;;3.63;0.70;;;19.30;65.40;;;;;;6305562;22;19999;-66
2022/05/16 02:10:10;;;;;;;1.92;0.90;;;19.40;65.50;;;;;;6305578;22;20014;-67
2022/05/16 02:12:37;;;;;;;0.80;0.68;;;19.40;66.80;;;;;;6305552;22;19999;-66
2022/05/16 02:15:06;;;;;;;1.77;1.10;;;19.40;64.60;;;;;;6278338;22;20079;-66
2022/05/16 02:17:33;;;;;;;0.60;0.60;;;19.40;64.70;;;;;;6278698;22;20100;-67
2022/05/16 02:20:01;;;;;;;1.02;0.65;;;19.40;63.90;;;;;;6304951;22;20023;-66
2022/05/16 02:25:13;;;;;;;1.85;0.60;;;19.50;63.30;;;;;;6282598;22;20014;-66
2022/05/16 02:27:40;;;;;;;6.28;1.17;;;19.50;63.70;;;;;;6305834;22;20011;-66
2022/05/16 02:30:07;;;;;;;2.00;0.90;;;19.50;64.30;;;;;;6278427;22;20090;-66
2022/05/16 02:32:35;;;;;;;0.98;0.60;;;19.50;64.10;;;;;;6278762;22;20082;-66
2022/05/16 02:35:02;;;;;;;2.03;0.77;;;19.50;63.80;;;;;;6305646;22;20019;-66
2022/05/16 02:37:29;;;;;;;2.20;0.82;;;19.50;63.60;;;;;;6278368;22;20003;-66
2022/05/16 02:39:56;;;;;;;1.88;0.77;;;19.50;63.20;;;;;;6305787;22;20011;-66
2022/05/16 02:42:24;;;;;;;1.10;0.90;;;19.50;63.70;;;;;;6305292;22;20006;-66
2022/05/16 02:44:53;;;;;;;1.55;0.82;;;19.60;63.10;;;;;;6304363;22;20003;-66
2022/05/16 02:47:22;;;;;;;1.15;0.70;;;19.60;63.40;;;;;;6278778;22;20003;-66
2022/05/16 02:49:49;;;;;;;1.10;0.80;;;19.60;63.30;;;;;;6305449;22;20003;-67
2022/05/16 02:52:16;;;;;;;1.00;0.90;;;19.60;63.80;;;;;;6278289;22;20074;-66
2022/05/16 02:54:44;;;;;;;4.22;1.20;;;19.60;64.10;;;;;;6305406;22;20015;-66
2022/05/16 02:57:12;;;;;;;3.58;0.95;;;19.60;64.50;;;;;;6305690;22;20011;-66
2022/05/16 02:59:40;;;;;;;10.73;1.30;;;19.60;64.20;;;;;;6305541;22;19995;-67
2022/05/16 03:02:08;;;;;;;1.83;0.80;;;19.70;64.50;;;;;;6278533;22;19999;-66
2022/05/16 03:04:36;;;;;;;1.08;0.80;;;19.70;63.60;;;;;;6278017;22;20328;-66
2022/05/16 03:07:03;;;;;;;0.88;0.75;;;19.70;62.60;;;;;;6305463;22;20422;-66
2022/05/16 03:09:30;;;;;;;2.13;0.90;;;19.70;62.10;;;;;;6305825;22;20004;-66
2022/05/16 03:11:58;;;;;;;2.63;1.00;;;19.70;63.00;;;;;;6278124;22;20404;-66
2022/05/16 03:14:26;;;;;;;1.33;0.90;;;19.80;63.00;;;;;;6305491;22;20004;-66
2022/05/16 03:16:53;;;;;;;3.15;0.90;;;19.80;62.70;;;;;;6305498;22;20000;-66
2022/05/16 03:19:20;;;;;;;2.38;0.90;;;19.80;63.00;;;;;;6278108;22;20038;-66
2022/05/16 03:21:47;;;;;;;1.10;0.73;;;19.80;63.80;;;;;;6306208;22;19996;-66
2022/05/16 03:24:14;;;;;;;0.57;0.57;;;19.80;63.20;;;;;;6307767;22;20472;-66
2022/05/16 03:26:42;;;;;;;4.25;0.70;;;19.80;63.10;;;;;;6307064;22;20487;-66
2022/05/16 03:29:13;;;;;;;0.88;0.77;;;19.80;63.40;;;;;;6307031;22;20077;-66
2022/05/16 03:31:41;;;;;;;1.33;0.80;;;19.80;63.00;;;;;;6281400;22;20508;-66
2022/05/16 03:34:09;;;;;;;2.17;0.90;;;19.80;63.30;;;;;;6279679;22;20079;-66
2022/05/16 03:36:36;;;;;;;1.58;0.93;;;19.80;63.00;;;;;;6307544;22;20024;-67
2022/05/16 03:41:49;;;;;;;1.10;1.00;;;19.90;63.10;;;;;;6307261;22;20050;-67
2022/05/16 03:44:17;;;;;;;1.33;0.88;;;19.80;63.80;;;;;;6279857;22;20003;-66
2022/05/16 03:46:44;;;;;;;1.15;0.90;;;20.00;63.50;;;;;;6280006;22;20460;-66
2022/05/16 03:49:12;;;;;;;0.90;0.80;;;20.00;64.20;;;;;;6279896;22;20003;-66
2022/05/16 03:51:39;;;;;;;0.82;0.80;;;20.00;63.40;;;;;;6307794;22;20043;-67
2022/05/16 03:54:06;;;;;;;3.10;1.00;;;20.00;63.50;;;;;;6307263;22;20010;-66
2022/05/16 03:56:33;;;;;;;4.07;1.40;;;20.00;63.30;;;;;;6306875;22;19999;-66
2022/05/16 03:59:01;;;;;;;1.33;1.00;;;20.00;64.30;;;;;;6279259;22;20003;-66
2022/05/16 04:01:28;;;;;;;1.48;1.00;;;20.00;63.70;;;;;;6306962;22;19996;-66
2022/05/16 04:03:55;;;;;;;1.60;0.90;;;20.00;64.10;;;;;;6306897;22;19999;-66
2022/05/16 04:06:22;;;;;;;0.80;0.80;;;20.00;64.00;;;;;;6279918;22;20483;-67
2022/05/16 04:08:50;;;;;;;1.13;0.90;;;20.00;64.10;;;;;;6306733;22;20086;-67
2022/05/16 04:11:17;;;;;;;1.55;1.10;;;20.00;64.40;;;;;;6280060;22;20007;-66
2022/05/16 04:13:45;;;;;;;1.30;0.82;;;20.10;63.60;;;;;;6254631;22;20066;-66
2022/05/16 04:16:12;;;;;;;0.90;0.80;;;20.00;63.70;;;;;;6307213;22;20029;-66
2022/05/16 04:18:41;;;;;;;2.40;1.10;;;20.10;63.40;;;;;;6279985;22;20038;-67
2022/05/16 04:21:08;;;;;;;1.65;1.00;;;20.10;63.80;;;;;;6307030;22;20004;-67
2022/05/16 04:23:35;;;;;;;2.95;0.90;;;20.10;63.80;;;;;;6279364;22;20045;-66
2022/05/16 04:26:03;;;;;;;1.30;0.95;;;20.10;64.10;;;;;;6279515;22;20010;-67
2022/05/16 04:28:30;;;;;;;0.70;0.70;;;20.10;63.90;;;;;;6306924;22;20461;-66
2022/05/16 04:30:57;;;;;;;0.77;0.77;;;20.10;64.30;;;;;;6279932;22;20007;-66
2022/05/16 04:33:24;;;;;;;1.08;0.98;;;20.10;63.90;;;;;;6278889;22;20003;-66
2022/05/16 04:35:51;;;;;;;1.00;0.90;;;20.10;64.70;;;;;;6306647;22;20007;-66
2022/05/16 04:38:19;;;;;;;1.85;1.38;;;20.10;64.80;;;;;;6306729;22;19995;-66
2022/05/16 04:43:31;;;;;;;0.80;0.80;;;20.20;64.40;;;;;;6283545;22;20385;-66
2022/05/16 04:45:58;;;;;;;1.52;0.80;;;20.20;64.30;;;;;;6305811;22;20011;-66
2022/05/16 04:48:26;;;;;;;0.90;0.88;;;20.10;64.20;;;;;;6306133;22;20018;-66
2022/05/16 04:50:53;;;;;;;1.10;1.00;;;20.20;64.80;;;;;;6306375;22;20082;-66
2022/05/16 04:53:20;;;;;;;3.00;1.00;;;20.20;64.90;;;;;;6306706;22;20003;-66
2022/05/16 04:55:48;;;;;;;1.13;1.00;;;20.20;65.10;;;;;;6306413;22;19999;-66
2022/05/16 04:58:15;;;;;;;4.55;1.23;;;20.20;64.40;;;;;;6306688;22;20006;-66
2022/05/16 05:00:43;;;;;;;1.92;1.13;;;20.20;64.80;;;;;;6306504;22;20368;-66
2022/05/16 05:03:10;;;;;;;1.65;1.10;;;20.20;64.80;;;;;;6279237;22;20007;-67
2022/05/16 05:05:37;;;;;;;1.15;0.90;;;20.20;65.50;;;;;;6306301;22;20433;-66
2022/05/16 05:08:04;;;;;;;2.92;0.90;;;20.20;65.50;;;;;;6306424;22;20422;-66
2022/05/16 05:16:12;;;;;;;2.95;1.08;;;20.20;66.00;;;;;;6307016;22;20338;-66
2022/05/16 05:18:40;;;;;;;2.63;1.30;;;20.20;66.20;;;;;;6254674;22;20003;-66
2022/05/16 05:21:07;;;;;;;2.90;1.00;;;20.20;66.20;;;;;;6306309;22;20018;-66
2022/05/16 05:23:34;;;;;;;3.35;1.10;;;20.20;66.20;;;;;;6279339;22;20007;-66
2022/05/16 05:26:02;;;;;;;2.85;1.20;;;20.20;65.60;;;;;;6279019;22;19999;-66
2022/05/16 05:28:29;;;;;;;2.95;1.20;;;20.20;66.30;;;;;;6291895;22;20023;-66
2022/05/16 05:30:57;;;;;;;3.80;1.00;;;20.20;66.30;;;;;;6304544;22;20015;-66
2022/05/16 05:33:24;;;;;;;2.35;0.82;;;20.20;66.10;;;;;;6305760;22;20452;-67
2022/05/16 05:35:51;;;;;;;2.15;0.98;;;20.20;65.40;;;;;;6278908;22;20315;-66
2022/05/16 05:38:19;;;;;;;0.70;0.70;;;20.20;65.10;;;;;;6304464;22;20072;-66
2022/05/16 05:40:46;;;;;;;2.83;0.90;;;20.20;65.10;;;;;;6304698;22;20018;-67
2022/05/16 05:43:13;;;;;;;1.00;0.90;;;20.20;65.90;;;;;;6306424;22;20004;-66
2022/05/16 05:45:41;;;;;;;1.02;0.90;;;20.20;65.70;;;;;;6305942;22;20029;-66
2022/05/16 05:48:08;;;;;;;1.15;1.00;;;20.20;65.50;;;;;;6305679;22;20070;-67
2022/05/16 05:50:35;;;;;;;4.50;0.90;;;20.20;65.40;;;;;;6303156;22;20067;-66
2022/05/16 05:53:02;;;;;;;1.10;0.90;;;20.20;66.00;;;;;;6304119;22;20000;-67
2022/05/16 05:55:30;;;;;;;1.10;1.00;;;20.20;65.80;;;;;;6304099;22;20003;-66
2022/05/16 05:57:57;;;;;;;1.63;1.30;;;20.20;66.10;;;;;;6303384;22;20013;-67
2022/05/16 06:00:25;;;;;;;5.32;1.42;;;20.20;65.90;;;;;;6303436;22;20500;-66
2022/05/16 06:02:52;;;;;;;2.63;1.10;;;20.20;66.50;;;;;;6278636;22;20149;-67
2022/05/16 06:05:20;;;;;;;2.35;1.20;;;20.20;66.60;;;;;;6305499;22;20007;-66
2022/05/16 06:07:47;;;;;;;3.75;2.20;;;20.20;67.00;;;;;;6305648;22;20383;-67
2022/05/16 06:10:15;;;;;;;4.15;1.48;;;20.20;66.70;;;;;;6303224;22;20026;-66
2022/05/16 06:12:42;;;;;;;4.95;1.23;;;20.20;66.70;;;;;;6305973;22;20021;-66
2022/05/16 06:15:10;;;;;;;2.30;1.10;;;20.20;67.30;;;;;;6304947;22;20326;-66
2022/05/16 06:17:37;;;;;;;3.55;1.10;;;20.20;67.10;;;;;;6304381;22;20108;-65
2022/05/16 06:20:06;;;;;;;4.97;1.20;;;20.20;66.90;;;;;;6300153;22;20011;-65
2022/05/16 06:22:37;;;;;;;5.72;1.27;;;20.20;66.90;;;;;;6299662;22;20029;-65
2022/05/16 06:25:42;;;;;;;4.82;1.20;;;20.20;66.60;;;;;;6301865;22;20076;-65
2022/05/16 06:28:11;;;;;;;2.63;1.15;;;20.20;67.20;;;;;;6300143;22;20030;-67
2022/05/16 06:30:40;;;;;;;5.07;1.58;;;20.20;67.30;;;;;;6299501;22;20321;-66
2022/05/16 06:33:07;;;;;;;2.70;1.35;;;20.20;67.80;;;;;;6300248;22;20339;-66
2022/05/16 06:35:35;;;;;;;3.78;1.10;;;20.20;67.90;;;;;;6301798;22;20011;-66
2022/05/16 06:38:23;;;;;;;2.38;1.10;;;20.10;67.80;;;;;;6301625;22;20337;-66
2022/05/16 06:40:50;;;;;;;3.05;1.10;;;20.10;67.80;;;;;;6301975;22;20011;-66
2022/05/16 06:43:19;;;;;;;2.40;1.05;;;20.20;67.90;;;;;;6300727;22;20337;-67
2022/05/16 06:45:46;;;;;;;2.80;1.27;;;20.10;68.50;;;;;;6299631;22;20003;-66
2022/05/16 06:48:13;;;;;;;2.78;1.45;;;20.10;69.00;;;;;;6301203;22;20489;-65
2022/05/16 06:50:41;;;;;;;3.83;1.35;;;20.00;69.60;;;;;;6301095;22;20011;-67
2022/05/16 06:53:13;;;;;;;3.47;1.70;;;20.00;70.10;;;;;;6300134;22;20006;-66
2022/05/16 06:55:41;;;;;;;4.90;1.42;;;20.00;70.60;;;;;;6299172;22;20074;-67
2022/05/16 06:58:08;;;;;;;4.30;1.20;;;20.00;70.40;;;;;;6301390;22;20034;-66
2022/05/16 07:00:35;;;;;;;3.28;1.38;;;20.00;70.30;;;;;;6303347;22;20380;-66
2022/05/16 07:03:03;;;;;;;1.98;1.00;;;19.90;70.30;;;;;;6301126;22;20006;-67
2022/05/16 07:05:30;;;;;;;2.53;1.42;;;19.90;70.30;;;;;;6301412;22;20388;-66
2022/05/16 07:07:58;;;;;;;4.47;1.38;;;19.90;70.50;;;;;;6303840;22;20059;-66
2022/05/16 07:10:28;;;;;;;2.85;1.00;;;19.80;70.40;;;;;;6303749;22;20090;-66
2022/05/16 07:12:55;;;;;;;3.45;1.25;;;19.80;70.50;;;;;;6303555;22;20410;-66
2022/05/16 07:15:22;;;;;;;2.42;1.25;;;19.80;70.60;;;;;;6303457;22;20364;-65
2022/05/16 07:17:50;;;;;;;2.58;1.92;;;19.80;70.80;;;;;;6303340;22;20592;-65
2022/05/16 07:20:18;;;;;;;3.17;1.48;;;19.70;70.80;;;;;;6303742;22;20003;-65
2022/05/16 07:22:48;;;;;;;4.07;1.80;;;19.70;71.20;;;;;;6303231;22;20011;-66
2022/05/16 07:25:15;;;;;;;;;;;19.70;71.20;;;;;;6304294;22;19999;-66
2022/05/16 07:27:57;;;;;;;4.35;1.60;;;19.70;71.30;;;;;;6300979;22;19915;-67
2022/05/16 07:30:31;;;;;;;2.45;1.50;;;19.70;71.40;;;;;;6300108;22;20011;-67
2022/05/16 07:32:58;;;;;;;1.58;1.30;;;19.70;70.80;;;;;;6303193;22;20092;-67
2022/05/16 07:35:29;;;;;;;2.58;1.50;;;19.70;70.40;;;;;;6301156;22;20003;-65
2022/05/16 07:37:56;;;;;;;2.28;1.40;;;19.70;70.40;;;;;;6303164;22;20109;-65
2022/05/16 07:40:26;;;;;;;3.08;1.80;;;19.70;70.30;;;;;;6302995;22;20078;-66
2022/05/16 07:42:56;;;;;;;2.70;1.90;;;19.70;70.40;;;;;;6276107;22;20027;-66
2022/05/16 07:45:23;;;;;;;2.85;1.73;;;19.70;71.00;;;;;;6302887;22;20358;-66
2022/05/16 07:47:51;;;;;;;2.78;1.95;;;19.70;71.40;;;;;;6303178;22;20338;-66
2022/05/16 07:50:18;;;;;;;6.25;1.90;;;19.60;71.50;;;;;;6302799;22;20011;-66
2022/05/16 07:52:48;;;;;;;6.65;2.00;;;19.60;72.10;;;;;;6302530;22;20086;-66
2022/05/16 07:55:21;;;;;;;6.65;2.17;;;19.50;73.20;;;;;;6302364;22;19999;-67
2022/05/16 07:57:49;;;;;;;7.10;2.00;;;19.50;73.80;;;;;;6302766;22;20003;-68
2022/05/16 08:00:17;;;;;;;9.30;2.47;;;19.50;74.30;;;;;;6302701;22;20406;-68
2022/05/16 08:02:44;;;;;;;10.77;2.90;;;19.50;74.60;;;;;;6300685;22;20422;-68
2022/05/16 08:05:13;;;;;;;9.02;2.45;;;19.40;75.40;;;;;;6300189;22;20434;-67
2022/05/16 08:10:31;;;;;;;5.97;2.40;;;19.40;76.40;;;;;;6302289;22;20018;-67
2022/05/16 08:13:00;;;;;;;9.38;2.90;;;19.40;77.00;;;;;;6302221;22;20010;-67
2022/05/16 08:15:28;;;;;;;4.82;2.53;;;19.40;77.20;;;;;;6302552;22;20025;-67
2022/05/16 08:17:55;;;;;;;6.47;2.75;;;19.30;76.80;;;;;;6302247;22;20061;-68
2022/05/16 08:20:23;;;;;;;5.03;1.95;;;19.30;77.00;;;;;;6300647;22;20007;-65
2022/05/16 08:22:51;;;;;;;6.43;2.40;;;19.30;76.50;;;;;;6300816;22;20007;-65
2022/05/16 08:25:18;;;;;;;5.80;2.53;;;19.30;76.30;;;;;;6302437;22;20434;-65
2022/05/16 08:27:45;;;;;;;6.68;2.20;;;19.30;74.90;;;;;;6302360;22;20026;-65
2022/05/16 08:30:13;;;;;;;7.30;2.22;;;19.30;74.80;;;;;;6300241;22;20003;-65
2022/05/16 08:32:40;;;;;;;4.65;2.10;;;19.30;74.60;;;;;;6300853;22;20337;-66
2022/05/16 08:35:09;;;;;;;6.22;2.55;;;19.30;73.80;;;;;;6300824;22;20048;-66
2022/05/16 08:40:21;;;;;;;10.77;3.08;;;19.30;73.60;;;;;;6301808;22;20058;-67
2022/05/16 08:43:06;;;;;;;10.43;2.88;;;19.30;73.50;;;;;;6302296;22;20003;-66
2022/05/16 08:45:41;;;;;;;5.90;2.50;;;19.30;73.80;;;;;;6302269;22;20003;-66
2022/05/16 08:48:33;;;;;;;6.72;2.38;;;19.20;73.30;;;;;;6302141;22;20326;-66
2022/05/16 08:51:23;;;;;;;5.65;2.47;;;19.30;72.50;;;;;;6251923;22;20116;-66
2022/05/16 08:54:10;;;;;;;3.03;1.80;;;19.30;71.80;;;;;;6301976;22;20012;-66
2022/05/16 08:56:38;;;;;;;7.00;2.45;;;19.20;71.10;;;;;;6275140;22;20075;-66
2022/05/16 08:59:08;;;;;;;7.68;2.38;;;19.20;70.00;;;;;;6275308;22;20003;-66
2022/05/16 09:02:02;;;;;;;5.35;2.00;;;19.20;69.40;;;;;;6301879;22;20004;-65
2022/05/16 09:04:57;;;;;;;5.32;2.20;;;19.20;68.80;;;;;;6249020;22;20004;-67
2022/05/16 09:07:35;;;;;;;10.70;2.60;;;19.20;67.90;;;;;;6251658;22;20007;-67
2022/05/16 09:10:15;;;;;;;8.57;1.88;;;19.20;67.60;;;;;;6276446;22;20003;-66
2022/05/16 09:13:04;;;;;;;6.03;1.85;;;19.30;66.90;;;;;;6274963;22;20322;-67
2022/05/16 09:15:41;;;;;;;4.32;1.70;;;19.20;66.30;;;;;;6252069;22;20010;-65
2022/05/16 09:18:24;;;;;;;5.15;1.70;;;19.20;65.80;;;;;;6274461;22;20034;-67
2022/05/16 09:21:12;;;;;;;2.83;1.75;;;19.20;65.40;;;;;;6301559;22;20000;-67
2022/05/16 09:23:48;;;;;;;6.57;1.70;;;19.20;65.60;;;;;;6275717;22;20007;-67
2022/05/16 09:26:15;;;;;;;5.82;1.60;;;19.20;64.90;;;;;;6274791;22;20010;-67
2022/05/16 09:28:46;;;;;;;6.32;2.00;;;19.20;65.00;;;;;;6301068;22;20023;-67
2022/05/16 09:31:32;;;;;;;4.38;1.85;;;19.20;65.50;;;;;;6271300;22;20012;-66
2022/05/16 09:34:00;;;;;;;3.75;2.10;;;19.20;65.50;;;;;;6301713;22;20038;-67
2022/05/16 09:36:32;;;;;;;6.82;2.25;;;19.20;66.00;;;;;;6275159;22;20033;-67
2022/05/16 09:39:00;;;;;;;7.13;2.00;;;19.10;66.80;;;;;;6274072;22;20426;-66
2022/05/16 09:41:51;;;;;;;6.80;1.80;;;19.10;67.30;;;;;;6274445;22;20153;-66
2022/05/16 09:44:45;;;;;;;4.22;1.55;;;19.10;67.00;;;;;;6274316;22;20011;-66
2022/05/16 09:47:24;;;;;;;3.53;1.48;;;19.00;66.50;;;;;;6301905;22;19999;-66
2022/05/16 09:50:07;;;;;;;3.60;1.80;;;19.00;66.90;;;;;;6275491;22;20079;-66
2022/05/16 09:52:42;;;;;;;3.45;1.67;;;19.00;66.70;;;;;;6301472;22;20080;-65
2022/05/16 09:55:12;;;;;;;4.15;1.63;;;18.90;65.90;;;;;;6301309;22;19996;-65
2022/05/16 09:57:59;;;;;;;6.68;2.10;;;18.90;66.00;;;;;;6301651;22;20041;-65
2022/05/16 10:00:38;;;;;;;5.38;1.83;;;18.90;67.40;;;;;;6279008;22;20007;-65
2022/05/16 10:03:15;;;;;;;3.78;1.70;;;18.80;66.80;;;;;;6275130;22;20082;-66
2022/05/16 10:05:47;;;;;;;4.57;1.80;;;18.80;66.90;;;;;;6301463;22;20004;-65
2022/05/16 10:08:22;;;;;;;6.75;1.42;;;18.80;67.80;;;;;;6301531;22;20003;-65
2022/05/16 10:10:49;;;;;;;3.50;1.40;;;18.80;67.60;;;;;;6274490;22;20334;-64
2022/05/16 10:13:17;;;;;;;7.25;1.60;;;18.80;69.00;;;;;;6273973;22;20211;-66
2022/05/16 10:15:53;;;;;;;3.97;1.50;;;18.80;68.30;;;;;;6274024;22;20007;-66
2022/05/16 10:18:22;;;;;;;3.83;1.50;;;18.80;68.80;;;;;;6249010;22;20342;-67
2022/05/16 10:20:58;;;;;;;11.18;2.10;;;18.70;69.20;;;;;;6249783;22;20049;-66
2022/05/16 10:23:37;;;;;;;6.07;1.83;;;18.60;69.90;;;;;;6251500;22;20007;-67
2022/05/16 10:26:10;;;;;;;7.10;1.92;;;18.50;70.30;;;;;;6301977;22;19999;-66
2022/05/16 10:28:46;;;;;;;4.78;1.80;;;18.50;70.60;;;;;;6264039;22;20438;-67
2022/05/16 10:34:37;;;;;;;5.30;1.85;;;18.50;70.90;;;;;;6278467;22;20034;-67
2022/05/16 10:37:04;;;;;;;5.55;1.63;;;18.40;70.80;;;;;;6300421;22;20018;-66
2022/05/16 10:39:31;;;;;;;3.88;1.80;;;18.40;71.50;;;;;;6300207;22;20456;-66
2022/05/16 10:42:06;;;;;;;6.32;1.73;;;18.40;72.20;;;;;;6301571;22;20029;-67
2022/05/16 10:45:09;;;;;;;3.35;1.40;;;18.40;71.20;;;;;;6300284;22;20057;-66
2022/05/16 10:48:00;;;;;;;6.90;1.63;;;18.30;71.20;;;;;;6286060;22;20012;-67
2022/05/16 10:50:38;;;;;;;4.55;1.30;;;18.30;70.60;;;;;;6300219;22;20085;-67
2022/05/16 10:53:08;;;;;;;3.08;1.30;;;18.30;70.00;;;;;;6300147;22;20007;-67
2022/05/16 10:55:49;;;;;;;7.80;1.63;;;18.30;70.00;;;;;;6299502;22;20007;-67
2022/05/16 10:58:25;;;;;;;4.78;1.50;;;18.30;71.10;;;;;;6300777;22;20035;-67
2022/05/16 11:01:11;;;;;;;3.83;1.52;;;18.20;69.30;;;;;;6296652;22;20017;-69
2022/05/16 11:03:54;;;;;;;3.65;1.50;;;18.20;69.70;;;;;;6299305;22;20109;-68
2022/05/16 11:06:49;;;;;;;3.10;1.25;;;18.20;69.20;;;;;;6300616;22;20080;-66
2022/05/16 11:09:35;;;;;;;7.45;1.70;;;18.20;68.50;;;;;;6294603;22;20010;-64
2022/05/16 11:12:30;;;;;;;2.35;1.40;;;18.10;69.40;;;;;;6299072;22;20035;-65
2022/05/16 11:15:05;;;;;;;3.85;1.83;;;18.10;70.30;;;;;;6285701;22;20014;-65
2022/05/16 11:17:38;;;;;;;3.97;1.55;;;18.00;72.30;;;;;;6299810;22;20011;-67
2022/05/16 11:20:10;;;;;;;5.25;1.95;;;18.00;72.10;;;;;;6301321;22;20489;-67
2022/05/16 11:22:44;;;;;;;3.63;1.67;;;17.90;70.60;;;;;;6299104;22;19999;-66
2022/05/16 11:25:23;;;;;;;4.18;1.90;;;17.90;71.70;;;;;;6273156;22;20007;-66
2022/05/16 11:28:05;;;;;;;4.75;1.58;;;17.90;70.90;;;;;;6274288;22;20015;-66
2022/05/16 11:30:59;;;;;;;3.40;1.80;;;17.90;70.90;;;;;;6297388;22;20810;-66
2022/05/16 11:33:34;;;;;;;3.85;1.65;;;17.80;70.50;;;;;;6301057;22;20491;-66
2022/05/16 11:36:23;;;;;;;4.03;1.40;;;17.80;70.00;;;;;;6299505;22;20358;-66
2022/05/16 11:39:29;;;;;;;3.13;1.50;;;17.80;70.50;;;;;;6299323;22;20841;-66
2022/05/16 11:42:08;;;;;;;6.32;1.60;;;17.70;69.90;;;;;;6300707;22;20004;-66
2022/05/16 11:44:56;;;;;;;4.75;1.55;;;17.70;71.70;;;;;;6302649;22;20325;-66
2022/05/16 11:47:30;;;;;;;4.47;1.85;;;17.70;71.40;;;;;;6302479;22;20008;-66
2022/05/16 11:50:11;;;;;;;4.95;1.70;;;17.70;71.30;;;;;;6301819;22;20007;-66
2022/05/16 11:53:10;;;;;;;7.53;2.00;;;17.60;69.70;;;;;;6301038;22;20382;-67
2022/05/16 12:01:38;;;;;;;6.95;1.80;;;17.50;70.70;;;;;;6301071;22;20026;-65
2022/05/16 12:04:21;;;;;;;4.18;1.60;;;17.50;72.00;;;;;;6301622;22;20047;-66
2022/05/16 12:06:59;;;;;;;7.40;1.80;;;17.50;70.90;;;;;;6301876;22;20611;-66
2022/05/16 12:09:31;;;;;;;6.78;1.90;;;17.50;72.30;;;;;;6301879;22;20007;-65
2022/05/16 12:12:01;;;;;;;4.90;1.70;;;17.50;73.20;;;;;;6302140;22;20666;-65
2022/05/16 12:14:37;;;;;;;;;;;17.50;72.30;;;;;;6302370;22;19999;-65
2022/05/16 12:17:18;;;;;;;4.13;1.60;;;17.50;72.80;;;;;;6300273;22;19906;-65
2022/05/16 12:19:48;;;;;;;2.95;1.50;;;17.50;72.70;;;;;;6302372;22;20030;-65
2022/05/16 12:22:42;;;;;;;5.90;1.70;;;17.50;72.70;;;;;;6300541;22;20335;-65
2022/05/16 12:25:29;;;;;;;8.65;1.85;;;17.40;71.00;;;;;;6286120;22;20015;-68
2022/05/16 12:28:12;;;;;;;8.13;2.03;;;17.50;72.10;;;;;;6302579;22;20112;-68
2022/05/16 12:30:39;;;;;;;6.32;1.95;;;17.50;72.20;;;;;;6304646;22;20415;-67
2022/05/16 12:33:28;;;;;;;10.48;1.85;;;17.50;71.90;;;;;;6305444;22;20011;-65
2022/05/16 12:35:55;;;;;;;5.07;1.60;;;17.50;71.50;;;;;;6253448;22;20014;-66
2022/05/16 12:38:23;;;;;;;5.50;1.40;;;17.50;71.50;;;;;;6306063;22;20003;-67
2022/05/16 12:41:38;;;;;;;2.92;1.30;;;17.50;70.70;;;;;;6279401;22;20056;-66
2022/05/16 12:44:23;;;;;;;2.88;1.08;;;17.60;69.50;;;;;;6263130;22;20011;-66
2022/05/16 12:47:18;;;;;;;5.15;1.42;;;17.60;69.80;;;;;;6306319;22;20049;-66
2022/05/16 12:49:54;;;;;;;6.60;1.63;;;17.60;68.70;;;;;;6279443;22;20015;-66
2022/05/16 12:53:14;;;;;;;4.80;1.60;;;17.60;68.50;;;;;;6304940;22;20424;-66
2022/05/16 12:56:03;;;;;;;3.80;1.55;;;17.60;70.60;;;;;;6227980;22;20326;-66
2022/05/16 12:58:42;;;;;;;4.43;1.50;;;17.50;69.00;;;;;;6306838;22;20017;-66
2022/05/16 13:01:24;;;;;;;7.28;1.73;;;17.50;67.90;;;;;;6279443;22;20307;-66
2022/05/16 13:04:28;;;;;;;5.22;1.45;;;17.40;68.70;;;;;;6305744;22;20129;-66
2022/05/16 13:07:07;;;;;;;4.65;1.73;;;17.40;69.00;;;;;;6278956;22;19999;-66
2022/05/16 13:09:42;;;;;;;9.65;1.90;;;17.30;69.00;;;;;;6256128;22;19999;-66
2022/05/16 13:12:31;;;;;;;11.52;1.88;;;17.30;68.80;;;;;;6280117;22;20015;-66
2022/05/16 13:15:04;;;;;;;8.20;1.60;;;17.30;70.00;;;;;;6278967;22;20010;-66
2022/05/16 13:17:37;;;;;;;4.13;1.65;;;17.20;71.20;;;;;;6306120;22;20007;-66
2022/05/16 13:20:16;;;;;;;3.88;1.23;;;17.20;71.80;;;;;;6305865;22;20003;-66
2022/05/16 13:22:44;;;;;;;5.13;2.15;;;17.20;71.00;;;;;;6254028;22;20094;-66
2022/05/16 13:25:12;;;;;;;5.93;1.55;;;17.10;71.50;;;;;;6306248;22;20015;-66
2022/05/16 13:30:26;;;;;;;3.38;1.40;;;17.00;73.50;;;;;;6305429;22;20041;-66
2022/05/16 13:32:54;;;;;;;5.80;1.65;;;17.00;73.30;;;;;;6278755;22;20098;-66
2022/05/16 13:35:35;;;;;;;5.25;1.60;;;17.00;72.60;;;;;;6306141;22;20003;-66
2022/05/16 13:38:05;;;;;;;4.18;1.55;;;17.00;73.00;;;;;;6279318;22;20015;-66
2022/05/16 13:40:43;;;;;;;5.88;1.70;;;17.00;72.50;;;;;;6279138;22;20410;-66
2022/05/16 13:43:14;;;;;;;3.63;1.65;;;17.00;73.30;;;;;;6305536;22;20379;-66
2022/05/16 13:45:42;;;;;;;10.30;2.92;;;16.90;73.80;;;;;;6306117;22;20326;-66
2022/05/16 13:48:12;;;;;;;6.40;2.20;;;16.90;74.30;;;;;;6306212;22;20104;-65
2022/05/16 13:50:42;;;;;;;3.05;1.77;;;16.80;73.70;;;;;;6306117;22;20007;-66
2022/05/16 13:53:10;;;;;;;8.80;1.80;;;16.80;73.50;;;;;;6294338;22;20022;-67